KSBD/SBD METAR and TAF weather

Enter ICAO airport designator
Station Type Date Time Source
KSBD METAR 2020/10/20 17:50 UTC NOAA

KSBD 201750Z 00000KT 3SM HZ SKC 23/12 A2991


Station Type Date Time Source
KSBD Decoded METAR 2020/10/20 17:50 UTC NOAA

Norton Air Force Base / San Bern, CA, United States (KSBD) 34-06N 117-14W
Oct 20, 2020 - 01:50 PM EDT / 2020.10.20 1750 UTC
Wind: Calm:0
Visibility: 3 mile(s):0
Sky conditions: clear
Weather: haze
Temperature: 73 F (23 C)
Dew Point: 53 F (12 C)
Relative Humidity: 49%
Pressure (altimeter): 29.91 in. Hg (1012 hPa)
ob: KSBD 201750Z 00000KT 3SM HZ SKC 23/12 A2991
cycle: 18

Station Type Date Time Source
KSBD TAF 2020/10/20 18:30 UTC NOAA

TAF KSBD 201728Z 2018/2118 VRB06KT 5SM HZ SKC

Example: see airport list